Time;durP1;ratioP1;P1;durP2;ratioP2;P2;SDS_P1;SDS_P2;PMS_P1;PMS_P2;Temp;Humidity;BMP_temperature;BMP_pressure;BME280_temperature;BME280_humidity;BME280_pressure;Samples;Min_cycle;Max_cycle;Signal;HPM_P1;HPM_P2
2021/04/15 00:04:12;;;;;;;10.45;7.00;;;;;;;2.46;80.67;99367.81;4391391;80;21140;-92
2021/04/15 00:10:15;;;;;;;8.08;5.65;;;;;;;2.39;80.83;99370.16;4387574;80;21126;-90
2021/04/15 00:16:17;;;;;;;7.67;5.15;;;;;;;2.33;80.77;99369.51;4316285;82;21136;-90
2021/04/15 00:22:19;;;;;;;11.75;7.03;;;;;;;2.29;81.00;99363.12;4347586;80;21145;-92
2021/04/15 00:28:21;;;;;;;11.65;7.28;;;;;;;2.32;81.18;99356.31;4359975;80;21864;-90
2021/04/15 00:34:22;;;;;;;14.13;8.80;;;;;;;2.28;81.24;99353.43;4352133;81;21178;-90
2021/04/15 00:40:24;;;;;;;14.25;9.60;;;;;;;2.26;81.48;99350.23;4350998;81;21282;-92
2021/04/15 00:46:49;;;;;;;14.80;10.20;;;;;;;2.29;81.55;99351.50;4348906;81;21143;-90
2021/04/15 00:53:00;;;;;;;16.62;11.25;;;;;;;2.26;81.90;99344.03;4357834;81;21168;-91
2021/04/15 00:59:04;;;;;;;18.07;12.78;;;;;;;2.21;82.00;99338.21;4338355;81;21163;-91
2021/04/15 01:05:20;;;;;;;16.27;10.53;;;;;;;2.21;82.04;99346.89;4316414;81;21563;-91
2021/04/15 01:12:02;;;;;;;15.85;10.88;;;;;;;2.27;82.18;99341.02;4339947;81;21152;-91
2021/04/15 01:18:12;;;;;;;17.00;11.38;;;;;;;2.23;82.31;99342.76;4341237;80;21656;-92
2021/04/15 01:24:43;;;;;;;17.10;11.35;;;;;;;2.15;82.55;99332.71;4344433;81;21147;-89
2021/04/15 01:30:50;;;;;;;13.88;9.90;;;;;;;2.13;82.60;99330.86;4355645;80;21657;-90
2021/04/15 01:37:20;;;;;;;16.93;10.35;;;;;;;2.16;82.59;99330.81;4384622;80;21160;-91
2021/04/15 01:43:35;;;;;;;16.10;11.30;;;;;;;2.00;82.71;99316.13;4342177;81;21157;-91
2021/04/15 01:49:41;;;;;;;13.43;8.95;;;;;;;2.03;82.85;99323.59;4349742;81;21568;-89
2021/04/15 01:56:14;;;;;;;18.05;11.00;;;;;;;1.95;83.00;99310.31;4386644;80;21326;-91
2021/04/15 02:02:26;;;;;;;16.97;9.93;;;;;;;2.02;83.38;99311.22;4384687;80;21196;-91
2021/04/15 02:08:41;;;;;;;13.55;9.50;;;;;;;2.02;83.38;99311.22;4390191;80;21138;-89
2021/04/15 02:14:47;;;;;;;14.00;9.35;;;;;;;2.00;83.20;99311.53;4343487;81;21131;-89
2021/04/15 02:20:51;;;;;;;16.93;9.30;;;;;;;1.97;83.32;99312.16;4345944;80;21905;-90
2021/04/15 02:27:00;;;;;;;14.18;9.98;;;;;;;1.97;83.45;99312.16;4365925;81;21290;-91
2021/04/15 02:33:08;;;;;;;18.15;10.43;;;;;;;1.96;83.68;99309.19;4342313;81;21607;-91
2021/04/15 02:39:20;;;;;;;12.73;8.45;;;;;;;1.92;83.43;99305.53;4347168;80;21198;-90
2021/04/15 02:45:32;;;;;;;13.43;8.58;;;;;;;1.93;83.61;99307.11;4349145;81;21123;-88
2021/04/15 02:51:44;;;;;;;14.30;8.95;;;;;;;1.92;83.73;99302.83;4350586;80;21177;-90
2021/04/15 02:57:54;;;;;;;12.58;7.67;;;;;;;1.83;83.75;99296.61;4351908;81;21476;-91
2021/04/15 03:03:58;;;;;;;14.00;8.85;;;;;;;1.84;83.59;99287.93;4348593;80;21166;-90
2021/04/15 03:10:01;;;;;;;13.53;8.75;;;;;;;1.81;83.90;99292.06;4350914;80;21655;-84
2021/04/15 03:16:05;;;;;;;11.48;8.73;;;;;;;1.77;83.91;99292.99;4218800;80;86546;-85
2021/04/15 03:22:21;;;;;;;14.60;8.95;;;;;;;1.77;83.98;99291.07;4138984;85;21202;-84
2021/04/15 03:28:36;;;;;;;17.30;11.03;;;;;;;1.62;84.24;99279.33;4141685;85;21199;-84
2021/04/15 03:35:00;;;;;;;16.70;11.55;;;;;;;1.61;84.33;99289.89;4135083;85;21229;-84
2021/04/15 03:41:23;;;;;;;15.25;11.88;;;;;;;1.61;84.54;99288.55;4117988;85;21600;-84
2021/04/15 03:47:37;;;;;;;18.32;13.40;;;;;;;1.63;84.83;99283.61;4595316;75;22572;-86
2021/04/15 03:53:50;;;;;;;17.98;14.18;;;;;;;1.60;84.71;99286.39;4490648;78;21555;-84
2021/04/15 04:00:06;;;;;;;21.10;14.18;;;;;;;1.61;84.61;99288.55;4485408;78;21195;-85
2021/04/15 04:06:22;;;;;;;21.15;15.58;;;;;;;1.63;84.76;99282.27;4487668;78;21148;-85
2021/04/15 04:12:35;;;;;;;24.57;17.52;;;;;;;1.53;84.80;99272.52;4485192;78;21617;-85
2021/04/15 04:18:47;;;;;;;25.82;16.70;;;;;;;1.59;84.98;99293.44;4491006;78;21346;-85
2021/04/15 04:25:19;;;;;;;23.92;17.52;;;;;;;1.53;85.23;99275.22;4486167;78;22436;-85
2021/04/15 04:31:29;;;;;;;27.67;18.73;;;;;;;1.53;85.23;99275.22;4488920;78;21606;-85
2021/04/15 04:37:52;;;;;;;26.62;18.67;;;;;;;1.63;85.15;99297.68;4489485;78;21132;-84
2021/04/15 04:43:59;;;;;;;32.58;16.00;;;;;;;1.68;85.26;99295.63;4472603;78;21119;-84
2021/04/15 04:50:12;;;;;;;24.35;17.67;;;;;;;1.72;85.13;99299.32;4458495;78;21184;-85
2021/04/15 04:56:30;;;;;;;27.17;18.50;;;;;;;1.65;85.38;99297.60;4457150;79;21136;-85
2021/04/15 05:02:32;;;;;;;26.23;17.82;;;;;;;1.47;85.47;99279.16;4454781;79;21160;-85
2021/04/15 05:09:00;;;;;;;23.42;16.55;;;;;;;1.70;85.53;99303.42;4455971;78;21139;-85
2021/04/15 05:15:04;;;;;;;25.72;17.90;;;;;;;1.68;85.58;99302.38;4456545;78;21132;-85
2021/04/15 05:21:16;;;;;;;25.88;17.80;;;;;;;1.66;85.64;99303.80;4458442;79;21175;-83
2021/04/15 05:27:20;;;;;;;23.62;16.77;;;;;;;1.75;85.76;99299.25;4441870;79;21187;-83
2021/04/15 05:33:25;;;;;;;23.70;16.85;;;;;;;1.76;85.70;99300.28;4459445;78;21643;-83
2021/04/15 05:39:30;;;;;;;26.48;17.23;;;;;;;1.76;85.84;99298.94;4456937;78;22036;-83
2021/04/15 05:45:34;;;;;;;26.87;18.67;;;;;;;1.77;85.64;99298.39;4474854;78;21163;-83
2021/04/15 05:51:49;;;;;;;24.63;18.52;;;;;;;1.81;85.57;99301.51;4486575;78;21148;-83
2021/04/15 05:57:56;;;;;;;30.10;20.45;;;;;;;1.84;85.63;99304.12;4486399;78;21149;-83
2021/04/15 06:04:20;;;;;;;28.25;17.65;;;;;;;1.85;85.83;99299.77;4486501;78;21136;-82
2021/04/15 06:10:26;;;;;;;24.47;17.15;;;;;;;1.92;85.65;99297.98;4487619;78;21588;-83
2021/04/15 06:16:33;;;;;;;20.97;13.72;;;;;;;1.88;85.60;99300.50;4494500;78;21847;-83
2021/04/15 06:22:46;;;;;;;27.10;17.40;;;;;;;1.82;85.63;99294.22;4483916;77;21733;-84
2021/04/15 06:28:49;;;;;;;29.15;17.42;;;;;;;1.80;85.54;99295.06;4494901;78;21181;-83
2021/04/15 06:35:05;;;;;;;27.17;18.25;;;;;;;1.83;85.57;99304.70;4485679;78;21131;-83
2021/04/15 06:53:06;;;;;;;27.85;18.37;;;;;;;1.80;85.81;99289.12;4379884;78;22976;-86
2021/04/15 06:59:33;;;;;;;28.85;19.67;;;;;;;1.77;85.61;99286.24;4333270;81;21143;-87
2021/04/15 07:12:45;;;;;;;26.85;18.67;;;;;;;1.74;85.63;99286.30;4316730;82;21141;-87
2021/04/15 07:19:26;;;;;;;30.85;19.15;;;;;;;1.83;85.74;99291.20;4306678;81;21921;-87
2021/04/15 07:25:52;;;;;;;35.38;22.82;;;;;;;1.86;85.85;99297.88;4328635;82;21120;-87
2021/04/15 07:32:07;;;;;;;34.23;19.17;;;;;;;1.88;85.86;99285.64;4315910;81;21129;-88
2021/04/15 07:38:47;;;;;;;29.30;18.60;;;;;;;1.99;86.03;99297.77;4267856;79;22796;-89
2021/04/15 07:45:09;;;;;;;28.67;18.75;;;;;;;2.16;85.99;99288.38;4234162;84;21180;-88
2021/04/15 07:52:05;;;;;;;24.60;17.10;;;;;;;2.34;86.23;99298.14;4571409;76;22922;-87
2021/04/15 07:58:28;;;;;;;26.27;17.52;;;;;;;2.41;86.00;99289.59;4491254;77;21558;-87
2021/04/15 08:04:58;;;;;;;25.43;16.62;;;;;;;2.69;86.42;99295.74;4351789;80;21145;-87
2021/04/15 08:11:39;;;;;;;25.80;15.88;;;;;;;2.88;86.01;99298.17;4354655;80;21307;-87
2021/04/15 08:18:12;;;;;;;19.57;13.40;;;;;;;3.06;85.94;99296.52;4355541;80;21442;-88
2021/04/15 08:24:30;;;;;;;18.75;12.82;;;;;;;3.06;85.43;99295.70;4353424;80;21299;-87
2021/04/15 08:30:54;;;;;;;20.37;12.68;;;;;;;3.17;85.50;99298.33;4345054;80;21154;-89
2021/04/15 08:37:21;;;;;;;14.90;11.45;;;;;;;3.33;85.88;99299.44;4355962;80;21182;-88
2021/04/15 08:43:57;;;;;;;16.07;11.05;;;;;;;3.30;85.08;99294.67;4363875;80;21123;-87
2021/04/15 08:50:16;;;;;;;18.02;12.18;;;;;;;3.34;85.04;99301.02;4124059;80;33308;-88
2021/04/15 08:56:23;;;;;;;15.15;10.38;;;;;;;3.36;85.28;99300.16;4037235;87;21207;-88
2021/04/15 09:02:52;;;;;;;16.67;10.88;;;;;;;3.48;85.41;99297.58;4085110;86;21182;-89
2021/04/15 09:09:27;;;;;;;12.95;9.75;;;;;;;3.58;85.21;99294.55;4083027;86;21188;-87
2021/04/15 09:15:52;;;;;;;15.28;11.33;;;;;;;3.60;85.20;99293.68;4064265;86;21333;-88
2021/04/15 09:22:36;;;;;;;17.95;11.68;;;;;;;3.59;84.72;99289.36;4059872;86;21457;-87
2021/04/15 09:28:42;;;;;;;15.03;10.98;;;;;;;3.67;85.11;99287.75;4063068;86;21225;-88
2021/04/15 09:35:38;;;;;;;14.37;10.33;;;;;;;3.69;84.78;99293.64;4065450;86;21206;-87
2021/04/15 09:42:14;;;;;;;12.10;8.83;;;;;;;3.79;84.87;99290.61;4038743;87;21147;-89
2021/04/15 09:48:53;;;;;;;10.85;8.23;;;;;;;3.80;84.04;99297.59;4062460;87;21189;-88
2021/04/15 09:55:05;;;;;;;16.50;11.48;;;;;;;3.73;84.40;99290.55;4027894;87;21170;-88
2021/04/15 10:01:15;;;;;;;15.28;12.40;;;;;;;3.87;84.76;99289.20;4048303;87;21190;-87
2021/04/15 10:07:34;;;;;;;13.93;9.48;;;;;;;3.93;84.81;99284.42;4586689;76;23291;-88
2021/04/15 10:14:01;;;;;;;14.53;7.70;;;;;;;3.92;84.54;99293.10;4489223;78;21123;-89
2021/04/15 10:20:20;;;;;;;15.43;10.05;;;;;;;3.84;84.28;99295.27;4494390;78;21141;-85
2021/04/15 10:26:31;;;;;;;15.65;9.98;;;;;;;3.72;84.36;99286.23;4491989;78;21644;-85
2021/04/15 10:33:07;;;;;;;17.05;9.80;;;;;;;3.72;84.62;99282.17;4488859;78;21143;-84
2021/04/15 10:39:32;;;;;;;13.05;9.38;;;;;;;3.89;84.44;99287.53;4353014;80;21807;-85
2021/04/15 10:45:52;;;;;;;10.53;8.38;;;;;;;3.96;84.32;99287.25;4343560;80;21694;-85
2021/04/15 10:52:05;;;;;;;13.58;10.25;;;;;;;3.89;83.99;99278.05;4344346;80;21135;-85
2021/04/15 10:58:24;;;;;;;15.55;10.43;;;;;;;3.68;84.13;99278.53;4346377;80;21584;-85
2021/04/15 11:04:29;;;;;;;16.67;11.53;;;;;;;3.81;84.49;99273.45;4366245;80;21213;-84
2021/04/15 11:10:33;;;;;;;14.93;10.10;;;;;;;3.62;84.26;99275.77;4308877;80;21177;-85
2021/04/15 11:16:37;;;;;;;16.17;10.82;;;;;;;3.59;84.61;99281.79;4386824;80;21185;-85
2021/04/15 11:23:15;;;;;;;15.18;10.15;;;;;;;3.57;84.21;99285.40;4377225;80;21187;-85
2021/04/15 11:29:41;;;;;;;17.25;10.28;;;;;;;3.74;84.87;99286.16;4378914;79;21345;-85
2021/04/15 11:35:43;;;;;;;15.30;11.53;;;;;;;3.84;84.56;99283.63;4391749;79;21252;-85
2021/04/15 11:41:55;;;;;;;16.97;11.15;;;;;;;4.09;85.06;99288.97;4389081;79;21636;-85
2021/04/15 11:48:26;;;;;;;21.97;11.90;;;;;;;4.14;84.21;99289.34;4382012;80;21194;-85
2021/04/15 11:54:41;;;;;;;10.68;8.13;;;;;;;4.34;84.91;99288.06;4351590;80;21309;-86
2021/04/15 12:00:44;;;;;;;15.75;10.80;;;;;;;4.43;83.92;99285.31;4353440;81;21141;-90
2021/04/15 12:07:02;;;;;;;11.33;8.58;;;;;;;4.33;84.18;99289.19;4388815;81;21205;-90
2021/04/15 12:13:21;;;;;;;10.72;8.25;;;;;;;4.32;83.85;99274.61;4377661;81;21138;-90
2021/04/15 12:19:54;;;;;;;10.18;8.13;;;;;;;4.41;83.92;99273.45;4321071;82;21137;-90
2021/04/15 12:26:07;;;;;;;21.27;12.75;;;;;;;4.18;83.63;99274.81;4386834;81;21246;-91
2021/04/15 12:32:26;;;;;;;16.97;11.83;;;;;;;4.13;83.98;99275.02;4366814;81;21314;-89
2021/04/15 12:38:41;;;;;;;20.23;14.18;;;;;;;4.20;83.89;99275.84;4355647;81;21329;-90
2021/04/15 12:44:43;;;;;;;23.75;16.67;;;;;;;4.28;83.88;99279.08;4360799;82;21203;-91
2021/04/15 12:50:44;;;;;;;13.78;9.48;;;;;;;4.42;83.93;99265.53;4334991;82;21685;-89
2021/04/15 12:56:51;;;;;;;15.58;11.50;;;;;;;4.45;84.40;99270.30;4327461;81;21300;-89
2021/04/15 13:03:10;;;;;;;13.90;10.13;;;;;;;4.53;83.75;99271.36;4360264;81;21187;-89
2021/04/15 13:09:17;;;;;;;9.75;6.40;;;;;;;4.47;83.42;99270.77;4331387;82;21150;-89
2021/04/15 13:15:30;;;;;;;12.98;10.03;;;;;;;4.61;83.72;99275.39;4374798;81;21164;-91
2021/04/15 13:21:37;;;;;;;13.62;9.33;;;;;;;4.73;83.78;99271.95;4303131;83;21186;-89
2021/04/15 13:27:59;;;;;;;10.55;7.97;;;;;;;4.72;83.90;99268.46;4305567;80;21136;-90
2021/04/15 13:34:06;;;;;;;10.43;8.30;;;;;;;4.61;83.10;99265.09;4182959;81;35279;-91
2021/04/15 13:40:30;;;;;;;10.78;7.95;;;;;;;4.61;83.29;99270.52;4069121;86;25784;-91
2021/04/15 13:46:41;;;;;;;11.90;8.33;;;;;;;4.59;83.31;99269.50;4156184;85;21761;-91
2021/04/15 13:52:44;;;;;;;13.58;9.65;;;;;;;4.60;83.03;99266.23;4137578;86;21314;-91
2021/04/15 13:58:46;;;;;;;12.10;8.43;;;;;;;4.63;83.52;99259.59;4103598;86;21149;-90
2021/04/15 14:04:58;;;;;;;16.57;9.35;;;;;;;4.78;83.46;99259.00;4142838;84;21944;-90
2021/04/15 14:11:22;;;;;;;14.10;9.63;;;;;;;4.76;83.21;99266.66;4141971;86;22009;-91
2021/04/15 14:17:29;;;;;;;14.20;7.40;;;;;;;4.78;82.99;99273.92;4111674;86;21650;-90
2021/04/15 14:23:48;;;;;;;10.53;6.65;;;;;;;4.79;82.94;99257.86;4138656;85;21177;-90
2021/04/15 14:29:51;;;;;;;14.07;8.78;;;;;;;4.77;82.56;99272.89;4139976;85;21172;-91
2021/04/15 14:35:54;;;;;;;11.48;8.18;;;;;;;4.71;82.92;99270.92;4121115;85;21620;-90
2021/04/15 14:42:00;;;;;;;11.18;7.60;;;;;;;4.72;83.10;99271.17;4129626;86;21180;-92
2021/04/15 14:48:06;;;;;;;10.38;7.00;;;;;;;4.68;82.81;99273.52;4112312;85;21141;-90
2021/04/15 14:54:25;;;;;;;17.30;9.83;;;;;;;4.59;82.68;99260.56;4149025;86;21201;-90
2021/04/15 15:00:31;;;;;;;12.63;9.35;;;;;;;4.57;83.18;99262.83;4151331;86;21335;-90
2021/04/15 15:06:39;;;;;;;13.43;8.65;;;;;;;4.46;82.74;99260.26;4159483;85;21204;-90
2021/04/15 15:12:42;;;;;;;15.25;10.48;;;;;;;4.38;82.91;99257.03;4166264;85;21176;-91
2021/04/15 15:18:47;;;;;;;17.40;10.18;;;;;;;4.44;83.30;99263.85;4166385;85;21205;-90
2021/04/15 15:24:49;;;;;;;14.17;9.33;;;;;;;4.42;83.14;99260.11;4145537;85;21178;-91
2021/04/15 15:30:51;;;;;;;14.13;8.98;;;;;;;4.33;83.15;99260.73;4165960;85;21326;-90
2021/04/15 15:36:54;;;;;;;12.95;9.05;;;;;;;4.20;83.07;99258.23;4130296;85;22114;-90
2021/04/15 15:43:18;;;;;;;13.22;8.28;;;;;;;4.02;82.79;99253.48;4098985;85;21354;-90
2021/04/15 15:49:26;;;;;;;13.98;9.70;;;;;;;3.86;82.94;99255.68;4151074;85;21185;-91
2021/04/15 15:55:37;;;;;;;17.73;11.85;;;;;;;3.65;82.80;99249.39;4105170;85;21193;-90
2021/04/15 16:02:01;;;;;;;19.15;11.85;;;;;;;3.64;83.43;99249.14;4162501;85;21152;-89
2021/04/15 16:08:16;;;;;;;14.63;10.25;;;;;;;3.69;83.60;99253.03;4118595;85;21196;-89
2021/04/15 16:14:38;;;;;;;16.15;10.35;;;;;;;3.65;83.56;99256.16;4115424;86;21203;-91
2021/04/15 16:20:45;;;;;;;15.10;9.15;;;;;;;3.67;83.70;99255.27;4123258;85;21621;-90
2021/04/15 16:26:49;;;;;;;13.18;8.80;;;;;;;3.60;83.39;99250.91;4116774;85;21208;-91
2021/04/15 16:32:51;;;;;;;16.30;8.80;;;;;;;3.52;83.59;99254.44;4123805;83;35137;-89
2021/04/15 16:38:54;;;;;;;14.95;9.83;;;;;;;3.39;83.45;99245.39;4137881;86;21334;-92
2021/04/15 16:44:57;;;;;;;13.88;10.08;;;;;;;3.31;83.78;99252.16;4135685;85;21327;-92
2021/04/15 16:51:15;;;;;;;;;;;;;;;;;;;;;
2021/04/15 16:59:15;;;;;;;20.25;11.08;;;;;;;3.28;84.09;99256.86;4556909;77;23378;-90
2021/04/15 17:05:17;;;;;;;21.07;12.03;;;;;;;3.18;84.06;99254.73;4552950;76;21129;-91
2021/04/15 17:11:35;;;;;;;19.15;12.03;;;;;;;3.15;84.11;99256.72;4556028;76;21565;-91
2021/04/15 17:17:37;;;;;;;18.20;12.88;;;;;;;3.08;84.28;99249.66;4573176;77;21136;-90
2021/04/15 17:23:39;;;;;;;17.73;11.83;;;;;;;3.00;84.45;99256.41;4540685;77;21133;-90
2021/04/15 17:29:41;;;;;;;16.73;12.28;;;;;;;3.03;84.60;99253.87;4445318;79;21636;-90
2021/04/15 17:35:44;;;;;;;18.10;11.55;;;;;;;2.98;84.41;99266.20;4412351;81;21191;-89
2021/04/15 17:41:46;;;;;;;20.35;11.95;;;;;;;2.85;84.49;99267.14;4411800;80;21168;-89
2021/04/15 17:47:48;;;;;;;16.23;10.90;;;;;;;2.79;84.31;99275.17;4463209;79;21148;-89
2021/04/15 17:53:52;;;;;;;18.98;11.83;;;;;;;2.76;84.58;99275.81;4561676;76;21181;-91
2021/04/15 17:59:54;;;;;;;21.42;13.25;;;;;;;2.72;84.55;99280.27;4619498;77;21267;-90
2021/04/15 18:05:56;;;;;;;22.25;13.93;;;;;;;2.62;84.81;99276.52;4590424;77;21141;-88
2021/04/15 18:11:58;;;;;;;23.18;13.28;;;;;;;2.64;84.97;99288.36;4617895;77;21126;-89
2021/04/15 18:18:01;;;;;;;24.90;15.40;;;;;;;2.63;85.23;99293.53;4618245;77;21192;-89
2021/04/15 18:24:03;;;;;;;28.07;15.43;;;;;;;2.61;85.26;99301.95;4559323;77;21133;-89
2021/04/15 18:30:09;;;;;;;36.03;19.50;;;;;;;2.59;85.01;99304.72;4471491;78;21169;-90
2021/04/15 18:36:14;;;;;;;32.33;18.37;;;;;;;2.58;85.44;99305.30;4489174;79;21165;-88
2021/04/15 18:42:15;;;;;;;30.95;16.97;;;;;;;2.59;85.34;99296.61;4529899;79;21164;-91
2021/04/15 18:48:17;;;;;;;29.70;16.57;;;;;;;2.61;85.31;99308.72;4530871;78;21145;-88
2021/04/15 18:54:20;;;;;;;32.80;18.42;;;;;;;2.57;85.33;99305.03;4531073;78;21177;-91
2021/04/15 19:00:31;;;;;;;31.50;20.30;;;;;;;2.59;85.56;99306.87;4541618;78;21556;-89
2021/04/15 19:06:33;;;;;;;35.43;21.70;;;;;;;2.58;85.43;99297.73;4525334;78;21144;-90
2021/04/15 19:12:34;;;;;;;40.88;23.35;;;;;;;2.57;85.67;99296.92;4431585;80;21157;-89
2021/04/15 19:18:37;;;;;;;39.55;22.60;;;;;;;2.50;85.60;99288.50;4464342;80;21598;-91
2021/04/15 19:24:39;;;;;;;45.52;24.95;;;;;;;2.48;85.79;99290.71;4465060;80;21137;-90
2021/04/15 19:30:41;;;;;;;41.20;23.52;;;;;;;2.54;85.80;99288.09;4607749;77;21145;-88
2021/04/15 19:36:43;;;;;;;41.73;24.80;;;;;;;2.49;85.82;99287.47;4575434;77;21169;-87
2021/04/15 19:42:44;;;;;;;41.18;24.32;;;;;;;2.49;85.89;99292.87;4555381;78;21149;-88
2021/04/15 19:48:47;;;;;;;45.60;26.42;;;;;;;2.48;85.96;99291.26;4556353;76;21590;-89
2021/04/15 19:54:49;;;;;;;44.48;25.77;;;;;;;2.42;86.04;99289.81;4653756;76;21153;-90
2021/04/15 20:00:51;;;;;;;51.65;26.95;;;;;;;2.43;86.22;99286.80;4620912;76;21145;-89
2021/04/15 20:06:53;;;;;;;51.25;27.75;;;;;;;2.44;85.99;99288.95;4616438;77;21129;-89
2021/04/15 20:12:54;;;;;;;60.20;28.67;;;;;;;2.43;86.24;99280.05;4632287;76;21120;-92
2021/04/15 20:18:58;;;;;;;59.45;31.02;;;;;;;2.35;86.22;99274.06;4581073;77;21136;-89
2021/04/15 20:25:00;;;;;;;48.98;28.60;;;;;;;2.33;86.36;99270.09;4571182;75;21121;-90
2021/04/15 20:31:03;;;;;;;55.23;30.62;;;;;;;2.35;86.46;99272.70;4624302;77;21111;-90
2021/04/15 20:37:09;;;;;;;57.15;31.60;;;;;;;2.38;86.45;99270.73;4623400;77;21694;-89
2021/04/15 20:43:11;;;;;;;58.08;30.82;;;;;;;2.35;86.58;99263.83;4607133;77;21334;-90
2021/04/15 20:49:14;;;;;;;56.98;30.77;;;;;;;2.34;86.47;99273.83;4614617;75;21589;-90
2021/04/15 20:55:17;;;;;;;54.80;29.70;;;;;;;2.28;86.59;99268.88;4618443;75;21161;-90
2021/04/15 21:01:19;;;;;;;59.30;31.05;;;;;;;2.34;86.70;99273.83;4670636;76;21581;-90
2021/04/15 21:07:20;;;;;;;58.00;31.05;;;;;;;2.34;86.77;99263.57;4643734;75;21099;-89
2021/04/15 21:13:23;;;;;;;54.67;30.52;;;;;;;2.30;86.74;99265.33;4637505;77;21141;-91
2021/04/15 21:19:26;;;;;;;57.27;29.45;;;;;;;2.31;86.92;99258.25;4608721;77;21135;-88
2021/04/15 21:25:29;;;;;;;60.40;32.73;;;;;;;2.32;86.89;99255.78;4564142;76;21604;-90
2021/04/15 21:31:30;;;;;;;63.33;33.18;;;;;;;2.34;87.01;99248.72;4608193;77;21119;-89
2021/04/15 21:37:32;;;;;;;64.53;33.78;;;;;;;2.32;87.15;99256.36;4613073;77;21177;-89
2021/04/15 21:43:35;;;;;;;59.75;33.45;;;;;;;2.34;87.21;99247.36;4629618;76;21121;-90
2021/04/15 21:49:37;;;;;;;58.65;32.78;;;;;;;2.36;87.15;99241.09;4619146;76;21138;-89
2021/04/15 21:55:39;;;;;;;62.67;32.67;;;;;;;2.29;87.43;99242.91;4616143;77;21137;-90
2021/04/15 22:01:41;;;;;;;68.30;34.73;;;;;;;2.34;87.50;99247.36;4627817;77;21312;-89
2021/04/15 22:07:45;;;;;;;67.37;36.13;;;;;;;2.34;87.47;99248.16;4641172;76;21105;-90
2021/04/15 22:13:48;;;;;;;60.17;34.00;;;;;;;2.35;87.54;99246.27;4627566;76;21176;-89
2021/04/15 22:19:50;;;;;;;67.50;34.27;;;;;;;2.34;87.35;99258.17;4610499;77;21107;-90
2021/04/15 22:25:52;;;;;;;72.15;36.55;;;;;;;2.39;87.48;99254.78;4608210;77;21858;-89
2021/04/15 22:31:54;;;;;;;67.67;33.55;;;;;;;2.41;87.59;99255.81;4630132;76;21129;-89
2021/04/15 22:37:58;;;;;;;64.72;32.98;;;;;;;2.43;87.71;99245.47;4628530;76;21127;-89
2021/04/15 22:43:59;;;;;;;70.37;34.63;;;;;;;2.39;87.66;99248.02;4621241;76;21089;-90
2021/04/15 22:50:02;;;;;;;71.28;36.48;;;;;;;2.40;87.75;99243.39;4580109;76;21570;-90
2021/04/15 22:56:05;;;;;;;58.70;32.63;;;;;;;2.39;87.89;99253.97;4631277;77;21588;-89
2021/04/15 23:02:07;;;;;;;58.20;29.87;;;;;;;2.36;87.74;99248.66;4639863;77;21149;-88
2021/04/15 23:08:09;;;;;;;56.18;30.32;;;;;;;2.36;87.89;99236.50;4622568;77;21127;-89
2021/04/15 23:14:10;;;;;;;54.08;29.37;;;;;;;2.39;88.04;99237.77;4568756;77;21896;-89
2021/04/15 23:20:15;;;;;;;50.40;27.73;;;;;;;2.40;88.15;99240.70;4576265;76;21139;-89
2021/04/15 23:26:17;;;;;;;42.67;24.37;;;;;;;2.41;88.16;99229.57;4607853;77;21137;-90
2021/04/15 23:32:18;;;;;;;48.60;26.65;;;;;;;2.40;88.12;99223.13;4638340;77;21279;-88
2021/04/15 23:38:23;;;;;;;40.17;20.88;;;;;;;2.39;88.22;99221.01;4639861;77;21613;-88
2021/04/15 23:44:25;;;;;;;37.67;21.52;;;;;;;2.42;88.24;99215.52;4692742;76;21137;-87
2021/04/15 23:50:31;;;;;;;37.73;22.15;;;;;;;2.42;88.32;99206.06;4683631;76;21618;-89
2021/04/15 23:56:33;;;;;;;38.50;21.73;;;;;;;2.47;88.27;99203.20;4608153;77;21133;-90
